Time;durP1;ratioP1;P1;durP2;ratioP2;P2;SDS_P1;SDS_P2;PMS_P1;PMS_P2;Temp;Humidity;BMP_temperature;BMP_pressure;BME280_temperature;BME280_humidity;BME280_pressure;Samples;Min_cycle;Max_cycle;Signal;HPM_P1;HPM_P2
2021/12/29 00:02:24;;;;;;;11.52;5.03;;;;;;;-14.42;66.66;100772.00;5042004;28;20045;-73
2021/12/29 00:04:55;;;;;;;27.35;9.00;;;;;;;-14.37;66.33;100765.75;5041856;28;20049;-73
2021/12/29 00:07:26;;;;;;;55.25;15.32;;;;;;;-14.38;66.26;100763.97;5042111;28;20075;-73
2021/12/29 00:09:59;;;;;;;37.30;10.82;;;;;;;-14.41;65.71;100770.34;5042032;28;20234;-73
2021/12/29 00:12:34;;;;;;;10.20;4.65;;;;;;;-14.51;65.51;100751.06;5041721;28;20341;-73
2021/12/29 00:15:07;;;;;;;4.60;2.88;;;;;;;-14.46;65.13;100754.88;5041853;28;20227;-74
2021/12/29 00:17:42;;;;;;;3.05;2.22;;;;;;;-14.63;64.91;100757.53;5041889;28;20550;-74
2021/12/29 00:20:14;;;;;;;6.00;2.30;;;;;;;-14.64;65.08;100764.16;5041960;28;20052;-74
2021/12/29 00:22:45;;;;;;;5.22;2.55;;;;;;;-14.69;65.29;100754.47;5041801;28;20045;-74
2021/12/29 00:25:16;;;;;;;2.97;2.38;;;;;;;-14.64;65.27;100760.78;5041706;28;20356;-74
2021/12/29 00:27:47;;;;;;;6.88;2.70;;;;;;;-14.61;65.23;100758.53;5041398;28;20112;-74
2021/12/29 00:30:19;;;;;;;4.32;3.03;;;;;;;-14.49;65.43;100753.72;5041639;28;20087;-76
2021/12/29 00:32:50;;;;;;;2.40;2.20;;;;;;;-14.46;65.50;100754.88;5041574;28;20112;-74
2021/12/29 00:35:21;;;;;;;3.65;2.20;;;;;;;-14.44;65.64;100747.50;5041393;28;20049;-74
2021/12/29 00:37:52;;;;;;;2.72;2.45;;;;;;;-14.53;65.63;100752.59;5041485;28;20259;-74
2021/12/29 00:40:22;;;;;;;2.85;2.60;;;;;;;-14.39;65.64;100757.19;5041681;28;20052;-74
2021/12/29 00:42:53;;;;;;;2.88;2.67;;;;;;;-14.23;65.62;100753.53;5041504;28;20045;-74
2021/12/29 00:45:26;;;;;;;2.88;2.45;;;;;;;-14.01;65.24;100762.25;5041282;28;20061;-73
2021/12/29 00:47:57;;;;;;;3.90;2.45;;;;;;;-13.87;65.00;100762.59;5041272;28;20045;-74
2021/12/29 00:50:27;;;;;;;5.75;2.15;;;;;;;-13.73;64.62;100754.63;5041245;28;20045;-74
2021/12/29 00:52:58;;;;;;;2.75;2.15;;;;;;;-13.58;64.28;100755.94;5041279;28;20049;-74
2021/12/29 00:55:29;;;;;;;4.75;2.60;;;;;;;-13.29;63.90;100755.09;5041278;28;20120;-74
2021/12/29 00:58:00;;;;;;;17.02;7.30;;;;;;;-12.96;63.43;100746.09;5041051;28;20312;-74
2021/12/29 01:00:34;;;;;;;10.43;5.38;;;;;;;-12.66;62.72;100743.59;5042896;28;20052;-74
2021/12/29 01:03:05;;;;;;;14.00;7.10;;;;;;;-12.51;61.95;100738.09;5060628;28;20052;-74
2021/12/29 01:05:37;;;;;;;8.48;4.40;;;;;;;-12.44;61.28;100735.31;5061045;28;20059;-74
2021/12/29 01:08:08;;;;;;;11.02;5.00;;;;;;;-12.23;61.44;100732.06;5061074;28;20125;-74
2021/12/29 01:10:41;;;;;;;9.70;4.60;;;;;;;-12.27;61.29;100673.75;5061072;28;20067;-75
2021/12/29 01:13:18;;;;;;;5.45;3.03;;;;;;;-11.85;60.80;100725.78;5060930;28;20060;-74
2021/12/29 01:15:58;;;;;;;3.03;2.22;;;;;;;-11.83;60.08;100725.16;5061351;28;20064;-74
2021/12/29 01:18:30;;;;;;;4.25;2.40;;;;;;;-11.81;59.54;100728.66;5061011;28;20057;-75
2021/12/29 01:21:01;;;;;;;2.30;2.10;;;;;;;-11.81;59.13;100732.81;5060744;28;20052;-74
2021/12/29 01:23:31;;;;;;;6.35;3.10;;;;;;;-11.79;58.85;100722.09;5061166;28;20104;-74
2021/12/29 01:26:02;;;;;;;3.25;2.38;;;;;;;-11.52;58.76;100725.03;5060630;28;20087;-74
2021/12/29 01:28:33;;;;;;;2.00;1.70;;;;;;;-11.35;58.28;100702.03;5060926;28;20045;-75
2021/12/29 01:31:05;;;;;;;2.65;1.73;;;;;;;-10.98;58.00;100720.00;5061049;28;20049;-75
2021/12/29 01:33:36;;;;;;;1.80;1.70;;;;;;;-11.00;57.03;100706.38;5060863;28;20044;-75
2021/12/29 01:36:07;;;;;;;3.17;2.10;;;;;;;-10.97;57.02;100706.59;5060735;28;20347;-74
2021/12/29 01:38:38;;;;;;;2.28;1.75;;;;;;;-10.92;56.87;100705.31;5060879;28;20045;-74
2021/12/29 01:41:09;;;;;;;4.25;2.15;;;;;;;-11.09;56.01;100698.09;5064567;28;20433;-74
2021/12/29 01:43:39;;;;;;;2.25;1.90;;;;;;;-11.09;56.63;100690.53;5064833;28;20103;-74
2021/12/29 01:46:11;;;;;;;1.83;1.73;;;;;;;-10.86;56.55;100680.53;5064390;28;20056;-74
2021/12/29 01:48:42;;;;;;;2.00;1.60;;;;;;;-10.98;55.50;100679.63;5064583;28;20359;-74
2021/12/29 01:51:17;;;;;;;1.70;1.60;;;;;;;-10.92;55.19;100674.16;5064417;28;20045;-74
2021/12/29 01:54:01;;;;;;;1.60;1.50;;;;;;;-10.83;54.77;100651.22;5064634;28;20045;-74
2021/12/29 01:56:33;;;;;;;1.60;1.50;;;;;;;-10.70;54.29;100641.28;5064289;28;20044;-74
2021/12/29 01:59:03;;;;;;;3.40;1.67;;;;;;;-10.68;54.08;100629.66;5064171;28;20051;-74
2021/12/29 02:01:36;;;;;;;5.05;1.83;;;;;;;-10.49;54.25;100647.91;5064311;28;20120;-74
2021/12/29 02:04:07;;;;;;;1.70;1.60;;;;;;;-10.43;54.11;100628.16;5064145;28;20053;-74
2021/12/29 02:06:38;;;;;;;1.75;1.65;;;;;;;-10.27;54.01;100619.13;5063936;28;20351;-74
2021/12/29 02:09:10;;;;;;;2.17;1.55;;;;;;;-10.31;53.25;100602.00;5064120;28;20056;-75
2021/12/29 02:11:42;;;;;;;2.28;1.98;;;;;;;-10.42;53.46;100609.69;5063947;28;20056;-74
2021/12/29 02:14:13;;;;;;;4.35;2.47;;;;;;;-10.52;54.28;100587.06;5063893;28;20056;-74
2021/12/29 02:16:46;;;;;;;3.05;2.40;;;;;;;-10.39;53.78;100614.09;5064118;28;20051;-75
2021/12/29 02:19:16;;;;;;;2.95;2.20;;;;;;;-10.40;53.42;100611.47;5064198;28;20424;-75
2021/12/29 02:21:55;;;;;;;3.42;2.20;;;;;;;-10.46;53.62;100586.63;5064100;28;20360;-74
2021/12/29 02:24:36;;;;;;;4.95;2.13;;;;;;;-10.51;54.15;100588.81;5063811;28;20060;-75
2021/12/29 02:27:09;;;;;;;3.50;1.98;;;;;;;-10.68;54.30;100594.31;5063598;28;20115;-74
2021/12/29 02:29:40;;;;;;;4.30;2.05;;;;;;;-10.78;54.19;100581.75;5063710;28;20310;-75
2021/12/29 02:32:11;;;;;;;3.08;1.88;;;;;;;-11.10;54.47;100580.28;5063846;28;20098;-75
2021/12/29 02:34:42;;;;;;;3.72;2.10;;;;;;;-11.31;55.55;100587.97;5063602;28;20053;-75
2021/12/29 02:37:19;;;;;;;2.25;1.80;;;;;;;-11.30;55.57;100578.78;5063535;28;20060;-75
2021/12/29 02:39:51;;;;;;;2.83;1.88;;;;;;;-11.21;55.91;100573.53;5063667;28;20113;-73
2021/12/29 02:42:26;;;;;;;2.20;1.60;;;;;;;-11.17;55.61;100580.59;5063470;28;20085;-74
2021/12/29 02:45:01;;;;;;;4.45;1.63;;;;;;;-11.15;56.17;100574.00;5063438;28;20053;-74
2021/12/29 02:47:32;;;;;;;2.38;1.73;;;;;;;-11.02;56.15;100565.72;5063533;28;20133;-74
2021/12/29 02:50:03;;;;;;;6.50;2.30;;;;;;;-10.89;55.94;100559.13;5062954;28;20060;-74
2021/12/29 02:52:36;;;;;;;4.47;2.50;;;;;;;-10.97;55.69;100560.22;5063212;28;20108;-74
2021/12/29 02:55:07;;;;;;;3.35;2.45;;;;;;;-11.11;55.89;100550.75;5063187;28;20072;-73
2021/12/29 02:57:37;;;;;;;5.05;2.40;;;;;;;-11.24;56.02;100553.13;5063066;28;20095;-74
2021/12/29 03:00:12;;;;;;;3.88;2.38;;;;;;;-11.26;56.06;100554.66;5062392;28;20288;-74
2021/12/29 03:02:44;;;;;;;3.25;2.20;;;;;;;-11.27;55.80;100552.91;5062399;28;20045;-74
2021/12/29 03:05:15;;;;;;;2.42;1.65;;;;;;;-11.35;56.87;100555.72;5063072;28;20572;-74
2021/12/29 03:07:47;;;;;;;3.75;2.10;;;;;;;-11.37;57.51;100549.69;5060383;28;20356;-74
2021/12/29 03:10:18;;;;;;;4.32;1.70;;;;;;;-11.32;57.05;100545.88;5062939;28;20057;-74
2021/12/29 03:12:49;;;;;;;1.92;1.80;;;;;;;-11.31;56.45;100537.53;5060559;28;20080;-75
2021/12/29 03:15:20;;;;;;;2.60;1.80;;;;;;;-11.33;55.69;100538.19;5063724;28;20304;-74
2021/12/29 03:17:50;;;;;;;1.85;1.70;;;;;;;-11.21;55.55;100543.25;5064067;28;20053;-74
2021/12/29 03:20:21;;;;;;;4.00;2.30;;;;;;;-11.26;55.60;100534.47;5036107;28;20053;-73
2021/12/29 03:22:55;;;;;;;3.25;2.20;;;;;;;-11.39;55.21;100538.59;5054313;28;20120;-75
2021/12/29 03:25:27;;;;;;;2.80;2.00;;;;;;;-11.38;55.39;100535.34;5057831;28;20067;-74
2021/12/29 03:28:00;;;;;;;2.88;1.90;;;;;;;-11.21;55.22;100538.22;5066705;28;20052;-74
2021/12/29 03:30:32;;;;;;;3.45;2.47;;;;;;;-11.18;55.39;100534.28;5042767;28;20072;-75
2021/12/29 03:33:04;;;;;;;5.13;2.25;;;;;;;-11.10;55.64;100527.28;5057358;28;20053;-74
2021/12/29 03:35:37;;;;;;;3.58;2.20;;;;;;;-11.07;55.54;100518.28;5061798;28;20159;-75
2021/12/29 03:38:12;;;;;;;4.32;2.05;;;;;;;-11.12;54.20;100512.03;5060053;28;20113;-75
2021/12/29 03:40:43;;;;;;;2.30;2.10;;;;;;;-11.30;53.91;100509.03;5058724;28;20060;-74
2021/12/29 03:43:14;;;;;;;3.85;2.40;;;;;;;-11.40;54.62;100476.34;5061869;28;20576;-75
2021/12/29 03:45:47;;;;;;;2.70;2.00;;;;;;;-11.15;55.58;100498.31;5062264;28;20051;-75
2021/12/29 03:48:18;;;;;;;4.63;1.80;;;;;;;-11.00;55.09;100504.47;5060103;28;20048;-74
2021/12/29 03:50:49;;;;;;;6.88;2.17;;;;;;;-10.90;54.77;100501.84;5059708;28;20124;-75
2021/12/29 03:53:22;;;;;;;3.35;2.00;;;;;;;-10.89;54.68;100488.47;5070048;28;20099;-74
2021/12/29 03:55:53;;;;;;;2.65;1.65;;;;;;;-10.92;53.94;100488.25;5061559;28;20225;-74
2021/12/29 03:58:26;;;;;;;4.40;2.10;;;;;;;-11.03;53.42;100478.13;5057796;28;20052;-74
2021/12/29 04:00:59;;;;;;;3.40;2.30;;;;;;;-11.18;53.41;100453.56;5058977;28;20053;-74
2021/12/29 04:03:30;;;;;;;3.42;2.20;;;;;;;-11.14;54.16;100460.56;5058721;28;20045;-74
2021/12/29 04:06:01;;;;;;;4.13;2.22;;;;;;;-11.00;54.16;100474.19;5056526;28;20066;-73
2021/12/29 04:08:33;;;;;;;2.13;1.92;;;;;;;-11.08;53.82;100475.28;5056749;28;20049;-74
2021/12/29 04:11:04;;;;;;;2.50;1.70;;;;;;;-11.18;54.14;100477.88;5056291;28;20336;-73
2021/12/29 04:13:36;;;;;;;2.30;1.65;;;;;;;-11.23;54.07;100481.72;5058461;28;20099;-74
2021/12/29 04:16:15;;;;;;;3.22;2.10;;;;;;;-11.20;54.57;100470.22;5067359;28;20072;-74
2021/12/29 04:19:06;;;;;;;5.95;2.00;;;;;;;-11.02;54.10;100485.81;5056905;28;20041;-74
2021/12/29 04:21:38;;;;;;;3.30;2.00;;;;;;;-11.26;53.21;100416.78;5058460;28;20280;-75
2021/12/29 04:24:11;;;;;;;3.53;2.22;;;;;;;-11.14;53.44;100430.28;5067687;28;20107;-74
2021/12/29 04:26:42;;;;;;;7.25;2.40;;;;;;;-10.76;53.72;100474.19;5060623;28;20053;-74
2021/12/29 04:29:14;;;;;;;2.28;1.88;;;;;;;-10.57;53.56;100471.34;5064553;28;20045;-75
2021/12/29 04:31:45;;;;;;;2.42;1.80;;;;;;;-10.39;53.15;100479.34;5061631;28;20052;-75
2021/12/29 04:34:16;;;;;;;2.55;1.88;;;;;;;-10.33;53.05;100479.75;5066531;28;20299;-75
2021/12/29 04:36:47;;;;;;;26.30;11.50;;;;;;;-10.28;52.83;100480.94;5061195;28;20312;-74
2021/12/29 04:39:19;;;;;;;4.60;1.98;;;;;;;-10.25;52.13;100479.50;5058291;28;20063;-74
2021/12/29 04:41:50;;;;;;;2.25;1.90;;;;;;;-10.20;51.78;100477.28;5058444;28;20060;-74
2021/12/29 04:44:21;;;;;;;3.15;2.42;;;;;;;-10.04;51.70;100481.75;5055137;28;20052;-75
2021/12/29 04:46:54;;;;;;;2.65;1.90;;;;;;;-10.01;51.29;100467.69;5049785;28;20060;-75
2021/12/29 04:49:28;;;;;;;3.15;2.17;;;;;;;-9.95;51.32;100456.25;5061485;28;20091;-75
2021/12/29 04:52:03;;;;;;;6.72;1.60;;;;;;;-9.79;51.55;100486.81;5055921;28;20067;-75
2021/12/29 04:54:36;;;;;;;3.42;1.95;;;;;;;-9.83;52.80;100467.19;5058063;28;20040;-75
2021/12/29 04:57:07;;;;;;;3.67;2.22;;;;;;;-9.72;52.89;100485.59;5048371;28;20060;-77
2021/12/29 04:59:38;;;;;;;2.38;1.85;;;;;;;-9.75;53.08;100485.41;5058429;28;20087;-75
2021/12/29 05:02:09;;;;;;;4.38;2.30;;;;;;;-9.81;53.11;100488.38;5054738;28;20072;-75
2021/12/29 05:04:47;;;;;;;2.25;2.05;;;;;;;-10.12;53.40;100473.63;5058172;28;20072;-75
2021/12/29 05:10:07;;;;;;;5.20;2.08;;;;;;;-9.87;53.89;100498.09;5060458;28;20055;-75
2021/12/29 05:12:38;;;;;;;6.15;2.22;;;;;;;-9.94;54.01;100493.38;5059904;28;20045;-75
2021/12/29 05:15:10;;;;;;;3.10;2.00;;;;;;;-10.09;54.75;100494.06;5063851;28;20053;-75
2021/12/29 05:17:40;;;;;;;7.43;3.78;;;;;;;-10.26;55.03;100499.59;5064643;28;20052;-75
2021/12/29 05:20:12;;;;;;;6.80;3.47;;;;;;;-10.95;55.28;100413.97;5064934;28;20060;-75
2021/12/29 05:22:43;;;;;;;6.25;3.63;;;;;;;-10.47;55.44;100499.88;5064847;28;20321;-76
2021/12/29 05:25:15;;;;;;;15.32;6.03;;;;;;;-10.56;55.80;100499.22;5064969;28;20098;-74
2021/12/29 05:27:46;;;;;;;50.55;16.45;;;;;;;-10.69;56.48;100502.50;5064762;28;20060;-75
2021/12/29 05:30:17;;;;;;;171.15;49.78;;;;;;;-10.77;56.59;100487.59;5064922;28;20540;-75
2021/12/29 05:32:48;;;;;;;80.50;24.52;;;;;;;-10.73;56.71;100494.59;5064828;28;20120;-75
2021/12/29 05:35:19;;;;;;;22.25;8.88;;;;;;;-10.68;57.05;100503.41;5064982;28;20356;-75
2021/12/29 05:37:50;;;;;;;8.50;4.47;;;;;;;-10.73;57.21;100492.06;5064863;28;20053;-75
2021/12/29 05:40:22;;;;;;;11.80;4.55;;;;;;;-10.67;57.39;100500.13;5064894;28;20163;-75
2021/12/29 05:42:53;;;;;;;14.50;4.60;;;;;;;-10.70;57.47;100497.38;5064818;28;20329;-75
2021/12/29 05:45:25;;;;;;;9.55;4.88;;;;;;;-10.77;57.95;100502.75;5064323;28;20112;-75
2021/12/29 05:47:57;;;;;;;9.80;4.78;;;;;;;-10.95;58.28;100482.13;5064606;28;20052;-75
2021/12/29 05:50:29;;;;;;;10.52;4.65;;;;;;;-10.89;58.68;100508.66;5064506;28;20057;-74
2021/12/29 05:53:01;;;;;;;10.02;4.88;;;;;;;-10.96;59.24;100495.47;5064626;28;20359;-75
2021/12/29 05:55:33;;;;;;;13.00;5.53;;;;;;;-11.00;59.53;100484.28;5064648;28;20363;-75
2021/12/29 05:58:04;;;;;;;10.63;4.93;;;;;;;-11.07;59.95;100469.47;5064354;28;20053;-75
2021/12/29 06:00:37;;;;;;;11.68;5.28;;;;;;;-10.99;60.24;100501.19;5064370;28;20355;-75
2021/12/29 06:03:08;;;;;;;31.42;14.52;;;;;;;-11.08;60.59;100482.88;5064240;28;20057;-75
2021/12/29 06:05:39;;;;;;;20.05;10.00;;;;;;;-11.19;60.90;100489.63;5064176;28;20124;-75
2021/12/29 06:08:10;;;;;;;15.45;7.90;;;;;;;-11.29;61.44;100480.50;5064074;28;20056;-75
2021/12/29 06:10:42;;;;;;;10.75;4.32;;;;;;;-11.24;61.84;100482.50;5064333;28;20045;-75
2021/12/29 06:13:13;;;;;;;6.68;3.72;;;;;;;-11.40;61.77;100471.28;5063965;28;20064;-75
2021/12/29 06:15:44;;;;;;;6.53;3.47;;;;;;;-11.54;62.66;100467.72;5063819;28;20334;-75
2021/12/29 06:18:14;;;;;;;6.82;3.17;;;;;;;-11.66;63.10;100445.78;5064170;28;20045;-75
2021/12/29 06:20:45;;;;;;;6.28;2.80;;;;;;;-11.68;63.24;100452.34;5063949;28;20321;-75
2021/12/29 06:23:16;;;;;;;4.63;2.53;;;;;;;-11.77;63.71;100460.97;5063772;28;20045;-75
2021/12/29 06:25:49;;;;;;;3.50;2.63;;;;;;;-11.96;64.20;100435.19;5063242;28;20113;-75
2021/12/29 06:28:19;;;;;;;4.47;2.40;;;;;;;-11.94;64.47;100443.75;5063678;28;20332;-75
2021/12/29 06:30:50;;;;;;;4.25;2.80;;;;;;;-11.95;64.64;100442.00;5064010;28;20077;-75
2021/12/29 06:33:21;;;;;;;4.03;2.55;;;;;;;-11.94;64.92;100433.66;5063471;28;20090;-75
2021/12/29 06:35:52;;;;;;;3.55;2.63;;;;;;;-12.00;65.12;100418.97;5063836;28;20104;-74
2021/12/29 06:38:24;;;;;;;4.57;2.90;;;;;;;-11.93;65.30;100425.31;5063761;28;20103;-76
2021/12/29 06:40:56;;;;;;;5.03;2.90;;;;;;;-11.87;65.53;100415.72;5063488;28;20060;-75
2021/12/29 06:43:27;;;;;;;4.05;2.72;;;;;;;-11.87;65.43;100424.94;5063527;28;20107;-75
2021/12/29 06:45:58;;;;;;;4.53;2.67;;;;;;;-11.82;65.61;100424.47;5063500;28;20107;-75
2021/12/29 06:48:29;;;;;;;4.15;3.00;;;;;;;-11.92;65.80;100417.03;5063149;28;20395;-75
2021/12/29 06:51:00;;;;;;;18.10;8.52;;;;;;;-11.98;66.15;100427.53;5063554;28;20057;-75
2021/12/29 06:53:31;;;;;;;18.55;7.20;;;;;;;-12.17;66.11;100405.09;5063426;28;20071;-74
2021/12/29 06:56:05;;;;;;;8.25;4.00;;;;;;;-12.16;66.12;100416.03;5045837;28;20089;-74
2021/12/29 06:58:36;;;;;;;5.10;3.58;;;;;;;-12.24;66.49;100417.09;5063161;28;20083;-74
2021/12/29 07:01:07;;;;;;;6.20;3.95;;;;;;;-12.26;66.40;100423.66;5063194;28;20108;-74
2021/12/29 07:03:38;;;;;;;9.18;4.03;;;;;;;-12.57;66.40;100422.94;5063272;28;20045;-74
2021/12/29 07:06:09;;;;;;;6.63;4.85;;;;;;;-12.71;66.39;100432.81;5063076;28;20120;-74
2021/12/29 07:08:40;;;;;;;10.20;4.70;;;;;;;-12.96;67.36;100426.59;5063054;28;20083;-74
2021/12/29 07:11:12;;;;;;;13.10;6.10;;;;;;;-13.20;68.40;100423.00;5062906;28;20045;-74
2021/12/29 07:13:44;;;;;;;10.65;5.70;;;;;;;-13.28;69.00;100433.41;5063059;28;20072;-75
2021/12/29 07:16:15;;;;;;;9.20;5.70;;;;;;;-13.56;69.41;100392.56;5062716;28;20053;-74
2021/12/29 07:18:48;;;;;;;12.75;6.28;;;;;;;-13.38;69.32;100427.47;5063208;28;20045;-75
2021/12/29 07:21:19;;;;;;;11.98;6.07;;;;;;;-13.33;69.55;100428.72;5062949;28;20116;-75
2021/12/29 07:23:51;;;;;;;12.50;6.97;;;;;;;-13.21;69.55;100432.19;5062846;28;20053;-75
2021/12/29 07:26:24;;;;;;;14.45;6.18;;;;;;;-13.14;69.46;100426.91;5062762;28;20091;-75
2021/12/29 07:28:56;;;;;;;20.77;8.70;;;;;;;-13.12;69.52;100412.81;5062625;28;20057;-75
2021/12/29 07:31:27;;;;;;;22.33;9.52;;;;;;;-13.10;69.34;100413.81;5062640;28;20067;-75
2021/12/29 07:34:17;;;;;;;19.23;9.32;;;;;;;-13.06;69.31;100418.31;5062491;28;20091;-74
2021/12/29 07:36:49;;;;;;;24.98;9.75;;;;;;;-13.08;69.48;100414.84;5061513;28;20052;-74
2021/12/29 07:39:21;;;;;;;21.63;9.10;;;;;;;-13.18;69.38;100397.22;5062374;28;20052;-74
2021/12/29 07:41:54;;;;;;;16.00;7.18;;;;;;;-13.01;69.34;100415.31;5062337;28;20049;-74
2021/12/29 07:44:25;;;;;;;16.15;8.38;;;;;;;-13.00;69.63;100422.97;5062241;28;20060;-74
2021/12/29 07:46:58;;;;;;;14.05;6.90;;;;;;;-12.99;69.23;100408.75;5062314;28;20136;-74
2021/12/29 07:49:29;;;;;;;15.82;7.80;;;;;;;-13.04;69.34;100414.31;5062098;28;20088;-76
2021/12/29 07:52:00;;;;;;;16.00;7.72;;;;;;;-13.00;69.55;100412.03;5062015;28;20076;-74
2021/12/29 07:54:31;;;;;;;19.50;7.38;;;;;;;-13.04;69.49;100411.78;5053185;28;20298;-75
2021/12/29 07:57:03;;;;;;;17.88;7.53;;;;;;;-13.08;69.59;100412.31;5051816;28;20361;-79
2021/12/29 07:59:34;;;;;;;20.10;8.63;;;;;;;-13.15;69.80;100407.56;5062795;28;20076;-78
2021/12/29 08:02:05;;;;;;;17.98;7.47;;;;;;;-13.22;69.96;100410.34;5054569;28;20056;-78
2021/12/29 08:04:36;;;;;;;18.33;8.48;;;;;;;-13.22;70.50;100412.84;5059878;28;20048;-79
2021/12/29 08:07:07;;;;;;;10.80;6.50;;;;;;;-13.19;70.14;100410.56;5061474;28;20040;-79
2021/12/29 08:09:38;;;;;;;14.00;6.10;;;;;;;-13.28;70.28;100405.75;5068635;28;20136;-78
2021/12/29 08:12:11;;;;;;;10.02;5.45;;;;;;;-13.23;70.40;100403.53;5055852;28;20262;-78
2021/12/29 08:14:42;;;;;;;13.25;6.35;;;;;;;-13.13;70.65;100406.00;5067126;28;20115;-78
2021/12/29 08:17:12;;;;;;;9.80;5.30;;;;;;;-13.19;70.56;100405.53;5057683;28;20044;-78
2021/12/29 08:19:43;;;;;;;7.80;3.83;;;;;;;-13.24;70.76;100401.78;5072154;28;20047;-78
2021/12/29 08:22:14;;;;;;;94.70;21.13;;;;;;;-13.25;70.99;100384.97;5063988;28;20076;-77
2021/12/29 08:24:46;;;;;;;84.22;22.48;;;;;;;-13.21;71.20;100381.91;5060162;28;20100;-80
2021/12/29 08:27:18;;;;;;;48.90;14.10;;;;;;;-13.35;70.93;100363.25;5067168;28;20502;-80
2021/12/29 08:29:49;;;;;;;38.90;9.65;;;;;;;-13.28;71.07;100382.22;5062576;28;20044;-81
2021/12/29 08:32:21;;;;;;;65.43;15.82;;;;;;;-13.34;71.38;100376.69;5061589;28;20116;-80
2021/12/29 08:34:51;;;;;;;55.65;14.43;;;;;;;-13.42;71.68;100360.13;5062549;28;20053;-78
2021/12/29 08:37:22;;;;;;;16.65;5.68;;;;;;;-13.38;71.92;100389.78;5062948;28;20084;-79
2021/12/29 08:39:55;;;;;;;19.45;6.72;;;;;;;-13.35;72.00;100368.28;5063204;28;20056;-78
2021/12/29 08:42:28;;;;;;;35.22;11.90;;;;;;;-13.33;71.87;100365.88;5065210;28;20056;-80
2021/12/29 08:44:59;;;;;;;33.35;11.32;;;;;;;-13.29;72.10;100368.75;5062316;28;20080;-80
2021/12/29 08:47:30;;;;;;;15.23;7.75;;;;;;;-13.37;72.25;100358.88;5068114;28;20337;-82
2021/12/29 08:50:01;;;;;;;5.28;3.05;;;;;;;-13.37;72.39;100353.84;5054454;28;20056;-82
2021/12/29 08:52:31;;;;;;;7.20;3.10;;;;;;;-13.31;72.64;100354.31;5063081;28;20049;-80
2021/12/29 08:55:12;;;;;;;4.57;2.95;;;;;;;-13.31;72.80;100355.19;5063548;28;20067;-81
2021/12/29 08:57:45;;;;;;;6.53;2.85;;;;;;;-13.30;72.80;100356.09;5062896;28;20080;-78
2021/12/29 09:00:17;;;;;;;5.97;2.75;;;;;;;-13.25;72.90;100344.72;5061939;28;20115;-79
2021/12/29 09:02:50;;;;;;;2.53;2.25;;;;;;;-13.40;72.84;100321.81;5063773;28;20048;-79
2021/12/29 09:05:22;;;;;;;22.73;7.55;;;;;;;-13.31;73.14;100344.25;5063824;28;20060;-79
2021/12/29 09:07:53;;;;;;;40.90;9.45;;;;;;;-13.30;73.24;100335.97;5067059;28;20056;-79
2021/12/29 09:10:24;;;;;;;36.92;10.65;;;;;;;-13.35;73.39;100332.19;5061227;28;20083;-79
2021/12/29 09:12:59;;;;;;;55.75;13.88;;;;;;;-13.39;73.76;100335.25;5060275;28;20420;-80
2021/12/29 09:15:30;;;;;;;47.22;12.55;;;;;;;-13.49;73.88;100314.41;5065825;28;20365;-79
2021/12/29 09:18:01;;;;;;;56.08;13.77;;;;;;;-13.43;74.17;100333.22;5064712;28;20045;-79
2021/12/29 09:20:33;;;;;;;13.23;5.97;;;;;;;-13.44;74.15;100336.50;5065070;28;20313;-78
2021/12/29 09:23:06;;;;;;;10.77;5.10;;;;;;;-13.45;74.42;100325.59;5059811;28;20233;-79
2021/12/29 09:25:39;;;;;;;14.98;7.03;;;;;;;-13.42;74.57;100324.94;5062115;28;20065;-79
2021/12/29 09:28:14;;;;;;;9.13;4.05;;;;;;;-13.74;74.72;100262.97;5064104;28;20047;-79
2021/12/29 09:30:48;;;;;;;6.70;3.13;;;;;;;-13.55;75.57;100316.44;5061096;28;20057;-79
2021/12/29 09:33:20;;;;;;;5.43;3.30;;;;;;;-13.63;75.54;100309.91;5065655;28;20112;-77
2021/12/29 09:35:57;;;;;;;4.82;2.83;;;;;;;-13.53;75.59;100324.94;5073970;28;20108;-78
2021/12/29 09:38:27;;;;;;;6.32;3.03;;;;;;;-13.51;75.75;100310.88;5059888;28;20120;-78
2021/12/29 09:40:58;;;;;;;22.60;8.85;;;;;;;-13.56;75.91;100307.13;5068844;28;20060;-79
2021/12/29 09:44:27;;;;;;;13.52;5.75;;;;;;;-13.48;75.96;100313.66;5141289;27;20127;-68
2021/12/29 09:46:58;;;;;;;14.45;5.70;;;;;;;-13.70;76.95;100273.38;5120727;28;20357;-68
2021/12/29 09:49:28;;;;;;;10.52;5.28;;;;;;;-13.63;77.49;100304.88;5121482;28;20078;-68
2021/12/29 09:51:59;;;;;;;10.68;4.75;;;;;;;-13.61;77.21;100298.34;5121393;28;20102;-70
2021/12/29 09:54:30;;;;;;;16.75;6.82;;;;;;;-13.69;77.10;100280.16;5120274;28;20122;-67
2021/12/29 09:57:03;;;;;;;10.38;5.45;;;;;;;-13.25;77.79;100299.47;5120053;28;20115;-68
2021/12/29 09:59:35;;;;;;;14.55;5.45;;;;;;;-13.29;76.62;100263.16;5119495;28;20086;-67
2021/12/29 10:02:11;;;;;;;7.13;4.40;;;;;;;-13.57;76.81;100252.59;5038359;28;20063;-68
2021/12/29 10:04:42;;;;;;;5.38;2.70;;;;;;;-13.48;76.92;100275.06;5069706;28;20429;-67
2021/12/29 10:07:15;;;;;;;9.50;4.20;;;;;;;-13.50;77.16;100281.63;5069301;28;20065;-68
2021/12/29 10:09:46;;;;;;;38.42;11.35;;;;;;;-13.56;77.20;100266.91;5069273;28;20064;-66
2021/12/29 10:12:20;;;;;;;12.80;6.20;;;;;;;-13.54;77.15;100262.91;5069492;28;20060;-65
2021/12/29 10:14:55;;;;;;;13.85;7.70;;;;;;;-13.38;77.22;100271.63;5069393;28;20048;-65
2021/12/29 10:17:28;;;;;;;15.82;5.15;;;;;;;-13.52;77.42;100247.94;5069484;28;20295;-66
2021/12/29 10:20:04;;;;;;;14.32;4.78;;;;;;;-13.41;77.38;100261.34;5069447;28;20068;-67
2021/12/29 10:22:35;;;;;;;28.58;8.38;;;;;;;-13.35;77.10;100257.69;5069184;28;20120;-66
2021/12/29 10:25:09;;;;;;;17.10;7.85;;;;;;;-13.34;77.49;100243.47;5068972;28;20076;-66
2021/12/29 10:27:41;;;;;;;13.70;5.80;;;;;;;-13.70;77.41;100146.91;5068836;28;20055;-68
2021/12/29 10:30:25;;;;;;;10.07;5.25;;;;;;;-13.30;76.80;100175.09;5068821;28;20045;-68
2021/12/29 10:33:15;;;;;;;18.88;7.10;;;;;;;-13.12;76.60;100241.81;5068872;28;20314;-66
2021/12/29 10:35:46;;;;;;;30.35;10.50;;;;;;;-13.15;76.70;100241.59;5069044;28;20052;-67
2021/12/29 10:38:19;;;;;;;29.85;10.85;;;;;;;-13.11;76.50;100248.59;5068831;28;20064;-67
2021/12/29 10:40:51;;;;;;;28.27;9.25;;;;;;;-13.10;76.59;100235.28;5068545;28;20053;-66
2021/12/29 10:43:22;;;;;;;18.38;6.80;;;;;;;-13.18;76.59;100198.59;5068420;28;20083;-64
2021/12/29 10:45:54;;;;;;;21.52;7.53;;;;;;;-13.31;76.54;100193.41;5068784;28;20052;-66
2021/12/29 10:48:28;;;;;;;45.45;11.85;;;;;;;-13.31;77.05;100203.47;5068783;28;20067;-67
2021/12/29 10:51:02;;;;;;;35.38;9.90;;;;;;;-13.25;77.14;100203.94;5068573;28;20072;-66
2021/12/29 10:53:38;;;;;;;6.57;3.80;;;;;;;-13.34;77.43;100183.13;5067843;28;20078;-66
2021/12/29 10:56:19;;;;;;;8.63;4.70;;;;;;;-13.14;77.33;100217.31;5054711;28;20059;-67
2021/12/29 10:58:55;;;;;;;47.90;11.05;;;;;;;-13.21;77.50;100185.78;5055052;28;20098;-67
2021/12/29 11:01:27;;;;;;;41.13;9.98;;;;;;;-13.26;77.45;100152.75;5055081;28;20049;-68
2021/12/29 11:03:58;;;;;;;28.30;9.68;;;;;;;-12.99;77.46;100194.97;5055118;28;20135;-67
2021/12/29 11:06:29;;;;;;;39.38;11.23;;;;;;;-12.91;77.36;100196.41;5054933;28;20116;-67
2021/12/29 11:09:02;;;;;;;21.00;8.15;;;;;;;-12.99;77.23;100184.91;5054874;28;20045;-67
2021/12/29 11:11:35;;;;;;;78.47;15.05;;;;;;;-12.98;77.33;100186.66;5054823;28;20068;-67
2021/12/29 11:14:14;;;;;;;37.90;11.65;;;;;;;-13.02;77.55;100174.63;5054691;28;20202;-68
2021/12/29 11:16:48;;;;;;;20.52;7.30;;;;;;;-13.02;77.62;100169.59;5054551;28;20053;-68
2021/12/29 11:19:20;;;;;;;23.77;7.22;;;;;;;-13.71;77.83;100057.19;5055480;28;20103;-66
2021/12/29 11:21:52;;;;;;;9.20;3.55;;;;;;;-13.16;77.97;100158.47;5055832;28;20056;-67
2021/12/29 11:24:24;;;;;;;17.08;5.78;;;;;;;-13.18;78.09;100150.81;5055486;28;20151;-66
2021/12/29 11:26:55;;;;;;;7.40;4.05;;;;;;;-13.05;78.37;100158.53;5055684;28;20088;-65
2021/12/29 11:29:26;;;;;;;10.20;4.45;;;;;;;-13.07;78.45;100131.53;5055260;28;20079;-66
2021/12/29 11:32:03;;;;;;;10.20;4.93;;;;;;;-12.98;78.20;100143.88;5055519;28;20049;-66
2021/12/29 11:34:34;;;;;;;12.55;4.40;;;;;;;-12.98;78.03;100133.81;5055230;28;20339;-67
2021/12/29 11:37:07;;;;;;;5.82;3.35;;;;;;;-13.57;78.34;100018.91;5055257;28;20045;-67
2021/12/29 11:39:41;;;;;;;5.68;3.53;;;;;;;-12.86;78.25;100149.84;5055658;28;20077;-65
2021/12/29 11:42:12;;;;;;;6.55;3.42;;;;;;;-12.96;78.64;100112.19;5054851;28;20091;-66